createdAt,value
2017-09-01T00:00:19.356Z,100.0
2017-09-01T00:01:20.282Z,100.0
2017-09-01T00:02:21.004Z,100.0
2017-09-01T00:03:21.741Z,100.0
2017-09-01T00:04:22.477Z,100.0
2017-09-01T00:05:23.258Z,100.0
2017-09-01T00:06:24.388Z,100.0
2017-09-01T00:07:25.166Z,100.0
2017-09-01T00:08:25.902Z,100.0
2017-09-01T00:09:26.698Z,100.0
2017-09-01T00:10:27.436Z,100.0
2017-09-01T00:11:28.366Z,100.0
2017-09-01T00:12:29.110Z,100.0
2017-09-01T00:13:29.829Z,100.0
2017-09-01T00:14:30.615Z,100.0
2017-09-01T00:15:31.358Z,100.0
2017-09-01T00:16:32.163Z,100.0
2017-09-01T00:17:32.965Z,100.0
2017-09-01T00:18:34.107Z,100.0
2017-09-01T00:19:34.836Z,100.0
2017-09-01T00:20:35.576Z,100.0
2017-09-01T00:21:36.358Z,100.0
2017-09-01T00:22:37.158Z,100.0
2017-09-01T00:23:38.129Z,100.0
2017-09-01T00:24:38.856Z,100.0
2017-09-01T00:25:39.610Z,100.0
2017-09-01T00:26:40.338Z,100.0
2017-09-01T00:27:41.138Z,100.0
2017-09-01T00:28:42.226Z,100.0
2017-09-01T00:29:42.966Z,100.0
2017-09-01T00:30:43.702Z,100.0
2017-09-01T00:31:44.451Z,100.0
2017-09-01T00:32:45.266Z,100.0
2017-09-01T00:33:46.362Z,100.0
2017-09-01T00:34:47.177Z,100.0
2017-09-01T00:35:47.997Z,100.0
2017-09-01T00:36:48.794Z,100.0
2017-09-01T00:37:49.538Z,100.0
2017-09-01T00:38:50.737Z,100.0
2017-09-01T00:39:51.470Z,100.0
2017-09-01T00:40:52.199Z,100.0
2017-09-01T00:41:53.027Z,100.0
2017-09-01T00:42:53.765Z,100.0
2017-09-01T00:43:54.826Z,100.0
2017-09-01T00:44:55.556Z,100.0
2017-09-01T00:45:56.307Z,100.0
2017-09-01T00:46:57.037Z,100.0
2017-09-01T00:47:57.767Z,100.0
2017-09-01T00:48:58.751Z,100.0
2017-09-01T00:49:59.538Z,100.0
2017-09-01T00:51:00.277Z,100.0
2017-09-01T00:52:01.008Z,100.0
2017-09-01T00:53:01.818Z,100.0
2017-09-01T00:54:02.635Z,100.0
2017-09-01T00:55:03.369Z,100.0
2017-09-01T00:56:04.188Z,100.0
2017-09-01T00:57:04.920Z,100.0
2017-09-01T00:58:05.999Z,100.0
2017-09-01T00:59:06.738Z,100.0
2017-09-01T01:00:07.550Z,100.0
2017-09-01T01:01:08.328Z,100.0
2017-09-01T01:02:09.073Z,100.0
2017-09-01T01:03:10.287Z,100.0
2017-09-01T01:04:11.021Z,100.0
2017-09-01T01:05:11.796Z,100.0
2017-09-01T01:06:12.522Z,100.0
2017-09-01T01:07:13.336Z,100.0
2017-09-01T01:08:14.274Z,100.0
2017-09-01T01:09:15.041Z,100.0
2017-09-01T01:10:15.768Z,100.0
2017-09-01T01:11:16.497Z,100.0
2017-09-01T01:12:17.232Z,100.0
2017-09-01T01:13:18.369Z,100.0
2017-09-01T01:14:19.184Z,100.0
2017-09-01T01:15:19.925Z,100.0
2017-09-01T01:16:20.657Z,100.0
2017-09-01T01:17:21.384Z,100.0
2017-09-01T01:18:22.407Z,100.0
2017-09-01T01:19:23.138Z,100.0
2017-09-01T01:20:23.907Z,100.0
2017-09-01T01:21:24.639Z,100.0
2017-09-01T01:22:25.407Z,100.0
2017-09-01T01:23:26.530Z,100.0
2017-09-01T01:24:27.256Z,100.0
2017-09-01T01:25:27.987Z,100.0
2017-09-01T01:26:28.711Z,100.0
2017-09-01T01:27:29.447Z,100.0
2017-09-01T01:28:30.379Z,100.0
2017-09-01T01:29:31.193Z,100.0
2017-09-01T01:30:31.991Z,100.0
2017-09-01T01:31:32.728Z,100.0
2017-09-01T01:32:33.465Z,100.0
2017-09-01T01:33:34.609Z,100.0
2017-09-01T01:34:35.404Z,100.0
2017-09-01T01:35:36.133Z,100.0
2017-09-01T01:36:36.912Z,100.0
2017-09-01T01:37:37.639Z,100.0
2017-09-01T01:38:38.675Z,100.0
2017-09-01T01:39:39.438Z,100.0
2017-09-01T01:40:40.163Z,100.0
2017-09-01T01:41:40.900Z,100.0
2017-09-01T01:42:41.733Z,100.0
2017-09-01T01:43:42.858Z,100.0
2017-09-01T01:44:43.598Z,100.0
2017-09-01T01:45:44.332Z,100.0
2017-09-01T01:46:45.071Z,100.0
2017-09-01T01:47:45.843Z,100.0
2017-09-01T01:48:47.029Z,100.0
2017-09-01T01:49:47.760Z,100.0
2017-09-01T01:50:48.499Z,100.0
2017-09-01T01:51:49.286Z,100.0
2017-09-01T01:52:50.027Z,100.0
2017-09-01T01:53:51.055Z,100.0
2017-09-01T01:54:51.790Z,100.0
2017-09-01T01:55:52.605Z,100.0
2017-09-01T01:56:53.335Z,100.0
2017-09-01T01:57:54.068Z,100.0
2017-09-01T01:58:55.205Z,100.0
2017-09-01T01:59:55.937Z,100.0
2017-09-01T02:00:56.755Z,100.0
2017-09-01T02:01:57.495Z,100.0
2017-09-01T02:02:58.228Z,100.0
2017-09-01T02:03:59.336Z,100.0
2017-09-01T02:05:00.136Z,100.0
2017-09-01T02:06:00.916Z,100.0
2017-09-01T02:07:01.717Z,100.0
2017-09-01T02:08:02.435Z,100.0
2017-09-01T02:09:03.460Z,100.0
2017-09-01T02:10:04.208Z,100.0
2017-09-01T02:11:05.016Z,100.0
2017-09-01T02:12:05.745Z,100.0
2017-09-01T02:13:06.484Z,100.0
2017-09-01T02:14:07.221Z,100.0
2017-09-01T02:15:07.955Z,100.0
2017-09-01T02:16:08.704Z,100.0
2017-09-01T02:17:09.434Z,100.0
2017-09-01T02:18:10.157Z,100.0
2017-09-01T02:19:11.079Z,100.0
2017-09-01T02:20:11.814Z,100.0
2017-09-01T02:21:12.546Z,100.0
2017-09-01T02:22:13.375Z,100.0
2017-09-01T02:23:14.164Z,100.0
2017-09-01T02:24:15.244Z,100.0
2017-09-01T02:25:35.187Z,100.0
2017-09-01T02:26:35.964Z,100.0
2017-09-01T02:27:36.708Z,100.0
2017-09-01T02:28:37.486Z,100.0
2017-09-01T02:29:38.568Z,100.0
2017-09-01T02:30:39.307Z,100.0
2017-09-01T02:31:40.073Z,100.0
2017-09-01T02:32:40.867Z,100.0
2017-09-01T02:33:41.625Z,100.0
2017-09-01T02:34:42.714Z,100.0
2017-09-01T02:35:43.442Z,100.0
2017-09-01T02:36:44.274Z,100.0
2017-09-01T02:37:45.078Z,100.0
2017-09-01T02:38:45.889Z,100.0
2017-09-01T02:39:46.950Z,100.0
2017-09-01T02:40:47.681Z,100.0
2017-09-01T02:41:48.407Z,100.0
2017-09-01T02:42:49.213Z,100.0
2017-09-01T02:43:49.943Z,100.0
2017-09-01T02:44:50.739Z,100.0
2017-09-01T02:45:51.471Z,100.0
2017-09-01T02:46:52.570Z,100.0
2017-09-01T02:47:53.385Z,100.0
2017-09-01T02:48:54.156Z,100.0
2017-09-01T02:49:54.953Z,100.0
2017-09-01T02:50:55.692Z,100.0
2017-09-01T02:51:56.835Z,100.0
2017-09-01T02:52:57.634Z,100.0
2017-09-01T02:53:58.449Z,100.0
2017-09-01T02:54:59.170Z,100.0
2017-09-01T02:55:59.904Z,100.0
2017-09-01T02:57:01.011Z,100.0
2017-09-01T02:58:01.822Z,100.0
2017-09-01T02:59:02.622Z,100.0
2017-09-01T03:00:03.429Z,100.0
2017-09-01T03:01:04.153Z,100.0
2017-09-01T03:02:05.360Z,100.0
2017-09-01T03:03:06.092Z,100.0
2017-09-01T03:04:06.863Z,100.0
2017-09-01T03:05:07.660Z,100.0
2017-09-01T03:06:08.413Z,100.0
2017-09-01T03:07:09.198Z,100.0
2017-09-01T03:08:09.960Z,100.0
2017-09-01T03:09:10.687Z,100.0
2017-09-01T03:10:12.563Z,100.0
2017-09-01T03:11:13.782Z,100.0
2017-09-01T03:12:14.819Z,100.0
2017-09-01T03:13:15.727Z,100.0
2017-09-01T03:14:16.530Z,100.0
2017-09-01T03:15:17.261Z,100.0
2017-09-01T03:16:18.403Z,100.0
2017-09-01T03:17:19.191Z,100.0
2017-09-01T03:18:19.916Z,100.0
2017-09-01T03:19:20.635Z,100.0
2017-09-01T03:20:21.364Z,100.0
2017-09-01T03:21:22.395Z,100.0
2017-09-01T03:22:23.215Z,100.0
2017-09-01T03:23:23.943Z,100.0
2017-09-01T03:24:24.744Z,100.0
2017-09-01T03:25:25.484Z,100.0
2017-09-01T03:26:26.215Z,100.0
2017-09-01T03:27:27.301Z,100.0
2017-09-01T03:28:28.042Z,100.0
2017-09-01T03:29:28.729Z,100.0
2017-09-01T03:30:29.509Z,100.0
2017-09-01T03:31:30.245Z,100.0
2017-09-01T03:32:31.178Z,100.0
2017-09-01T03:33:31.917Z,100.0
2017-09-01T03:34:32.732Z,100.0
2017-09-01T03:35:33.465Z,100.0
2017-09-01T03:36:34.245Z,100.0
2017-09-01T03:37:35.222Z,100.0
2017-09-01T03:38:36.015Z,100.0
2017-09-01T03:39:36.737Z,100.0
2017-09-01T03:40:37.469Z,100.0
2017-09-01T03:41:38.207Z,100.0
2017-09-01T03:42:39.335Z,100.0
2017-09-01T03:43:40.070Z,100.0
2017-09-01T03:44:40.795Z,100.0
2017-09-01T03:45:41.555Z,100.0
2017-09-01T03:46:42.245Z,100.0
2017-09-01T03:47:43.378Z,100.0
2017-09-01T03:48:44.170Z,100.0
2017-09-01T03:49:44.906Z,100.0
2017-09-01T03:50:45.712Z,100.0
2017-09-01T03:51:46.548Z,100.0
2017-09-01T03:52:47.579Z,100.0
2017-09-01T03:53:48.386Z,100.0
2017-09-01T03:54:49.108Z,100.0
2017-09-01T03:55:49.835Z,100.0
2017-09-01T03:56:50.564Z,100.0
2017-09-01T03:57:51.764Z,100.0
2017-09-01T03:58:52.495Z,100.0
2017-09-01T03:59:53.266Z,100.0
2017-09-01T04:00:53.969Z,100.0
2017-09-01T04:01:54.758Z,100.0
2017-09-01T04:02:55.856Z,100.0
2017-09-01T04:03:56.634Z,100.0
2017-09-01T04:04:57.378Z,100.0
2017-09-01T04:05:58.160Z,100.0
2017-09-01T04:06:58.944Z,100.0
2017-09-01T04:08:00.039Z,100.0
2017-09-01T04:09:00.825Z,100.0
2017-09-01T04:10:01.551Z,100.0
2017-09-01T04:11:02.375Z,100.0
2017-09-01T04:12:03.108Z,100.0
2017-09-01T04:13:03.885Z,100.0
2017-09-01T04:14:04.625Z,100.0
2017-09-01T04:15:05.415Z,100.0
2017-09-01T04:16:06.183Z,100.0
2017-09-01T04:17:06.972Z,100.0
2017-09-01T04:18:08.106Z,100.0
2017-09-01T04:19:08.931Z,100.0
2017-09-01T04:20:09.662Z,100.0
2017-09-01T04:21:10.457Z,100.0
2017-09-01T04:22:11.216Z,100.0
2017-09-01T04:23:12.239Z,100.0
2017-09-01T04:24:13.008Z,100.0
2017-09-01T04:25:13.736Z,100.0
2017-09-01T04:26:14.539Z,100.0
2017-09-01T04:27:15.313Z,100.0
2017-09-01T04:28:16.435Z,100.0
2017-09-01T04:29:17.236Z,100.0
2017-09-01T04:30:17.999Z,100.0
2017-09-01T04:31:18.790Z,100.0
2017-09-01T04:32:19.584Z,100.0
2017-09-01T04:33:20.323Z,100.0
2017-09-01T04:34:21.301Z,100.0
2017-09-01T04:35:22.035Z,100.0
2017-09-01T04:36:22.769Z,100.0
2017-09-01T04:37:23.551Z,100.0
2017-09-01T04:38:24.405Z,100.0
2017-09-01T04:39:25.583Z,100.0
2017-09-01T04:40:26.327Z,100.0
2017-09-01T04:41:27.098Z,100.0
2017-09-01T04:42:27.907Z,100.0
2017-09-01T04:43:28.681Z,100.0
2017-09-01T04:44:29.489Z,100.0
2017-09-01T04:45:30.235Z,100.0
2017-09-01T04:46:31.365Z,100.0
2017-09-01T04:47:32.115Z,100.0
2017-09-01T04:48:32.925Z,100.0
2017-09-01T04:49:33.661Z,100.0
2017-09-01T04:50:34.397Z,100.0
2017-09-01T04:51:35.478Z,100.0
2017-09-01T04:52:36.318Z,100.0
2017-09-01T04:53:37.066Z,100.0
2017-09-01T04:54:37.796Z,100.0
2017-09-01T04:55:38.595Z,100.0
2017-09-01T04:56:39.628Z,100.0
2017-09-01T04:57:40.429Z,100.0
2017-09-01T04:58:41.206Z,100.0
2017-09-01T04:59:41.928Z,100.0
2017-09-01T05:00:42.651Z,100.0
2017-09-01T05:01:43.684Z,100.0
2017-09-01T05:02:44.418Z,100.0
2017-09-01T05:03:45.237Z,100.0
2017-09-01T05:04:45.972Z,100.0
2017-09-01T05:05:46.780Z,100.0
2017-09-01T05:06:47.494Z,100.0
2017-09-01T05:07:48.315Z,100.0
2017-09-01T05:08:49.445Z,100.0
2017-09-01T05:09:50.239Z,100.0
2017-09-01T05:10:51.044Z,100.0
2017-09-01T05:11:51.785Z,100.0
2017-09-01T05:12:52.888Z,100.0
2017-09-01T05:13:55.708Z,100.0
2017-09-01T05:14:56.937Z,100.0
2017-09-01T05:15:57.942Z,100.0
2017-09-01T05:16:59.817Z,100.0
2017-09-01T05:18:01.419Z,100.0
2017-09-01T05:19:03.702Z,100.0
2017-09-01T05:20:04.379Z,100.0
2017-09-01T05:21:05.118Z,100.0
2017-09-01T05:22:06.556Z,100.0
2017-09-01T05:23:08.312Z,100.0
2017-09-01T05:24:09.335Z,100.0
2017-09-01T05:25:10.145Z,100.0
2017-09-01T05:26:10.933Z,100.0
2017-09-01T05:27:11.680Z,100.0
2017-09-01T05:28:12.463Z,100.0
2017-09-01T05:29:13.607Z,100.0
2017-09-01T05:30:14.344Z,100.0
2017-09-01T05:31:15.076Z,100.0
2017-09-01T05:32:15.814Z,100.0
2017-09-01T05:33:16.561Z,100.0
2017-09-01T05:34:17.690Z,100.0
2017-09-01T05:35:18.477Z,100.0
2017-09-01T05:36:19.224Z,100.0
2017-09-01T05:37:19.954Z,100.0
2017-09-01T05:38:20.684Z,100.0
2017-09-01T05:39:21.431Z,100.0
2017-09-01T05:40:22.225Z,100.0
2017-09-01T05:41:23.031Z,100.0
2017-09-01T05:42:23.784Z,100.0
2017-09-01T05:43:24.514Z,100.0
2017-09-01T05:44:25.581Z,100.0
2017-09-01T05:45:26.385Z,100.0
2017-09-01T05:46:27.202Z,100.0
2017-09-01T05:47:27.997Z,100.0
2017-09-01T05:48:28.754Z,100.0
2017-09-01T05:49:29.896Z,100.0
2017-09-01T05:50:30.710Z,100.0
2017-09-01T05:51:31.409Z,100.0
2017-09-01T05:52:32.148Z,100.0
2017-09-01T05:53:32.884Z,100.0
2017-09-01T05:54:33.879Z,100.0
2017-09-01T05:55:34.663Z,100.0
2017-09-01T05:56:35.394Z,100.0
2017-09-01T05:57:36.133Z,100.0
2017-09-01T05:58:36.871Z,100.0
2017-09-01T05:59:38.077Z,100.0
2017-09-01T06:00:38.794Z,100.0
2017-09-01T06:01:39.555Z,100.0
2017-09-01T06:02:40.287Z,100.0
2017-09-01T06:03:41.088Z,100.0
2017-09-01T06:04:42.089Z,100.0
2017-09-01T06:05:42.829Z,100.0
2017-09-01T06:06:43.564Z,100.0
2017-09-01T06:07:44.294Z,100.0
2017-09-01T06:08:45.044Z,100.0
2017-09-01T06:09:46.192Z,100.0
2017-09-01T06:10:46.938Z,100.0
2017-09-01T06:11:47.675Z,100.0
2017-09-01T06:12:48.489Z,100.0
2017-09-01T06:13:49.299Z,100.0
2017-09-01T06:14:50.435Z,100.0
2017-09-01T06:15:51.196Z,100.0
2017-09-01T06:16:52.003Z,100.0
2017-09-01T06:17:52.740Z,100.0
2017-09-01T06:18:53.546Z,100.0
2017-09-01T06:19:54.586Z,100.0
2017-09-01T06:20:55.318Z,100.0
2017-09-01T06:21:56.055Z,100.0
2017-09-01T06:22:56.787Z,100.0
2017-09-01T06:23:57.516Z,100.0
2017-09-01T06:24:58.604Z,100.0
2017-09-01T06:25:59.344Z,100.0
2017-09-01T06:27:00.225Z,100.0
2017-09-01T06:28:01.026Z,100.0
2017-09-01T06:29:01.759Z,100.0
2017-09-01T06:30:02.805Z,100.0
2017-09-01T06:31:03.535Z,100.0
2017-09-01T06:32:04.267Z,100.0
2017-09-01T06:33:05.074Z,100.0
2017-09-01T06:34:05.816Z,100.0
2017-09-01T06:35:06.626Z,100.0
2017-09-01T06:36:07.369Z,100.0
2017-09-01T06:37:08.185Z,100.0
2017-09-01T06:38:09.347Z,100.0
2017-09-01T06:39:10.165Z,100.0
2017-09-01T06:40:11.004Z,100.0
2017-09-01T06:41:11.798Z,100.0
2017-09-01T06:42:12.531Z,100.0
2017-09-01T06:43:13.269Z,100.0
2017-09-01T06:44:14.356Z,100.0
2017-09-01T06:45:15.100Z,100.0
2017-09-01T06:46:15.842Z,100.0
2017-09-01T06:47:16.634Z,100.0
2017-09-01T06:48:17.386Z,100.0
2017-09-01T06:49:18.554Z,100.0
2017-09-01T06:50:19.292Z,100.0
2017-09-01T06:51:20.094Z,100.0
2017-09-01T06:52:20.837Z,100.0
2017-09-01T06:53:21.629Z,100.0
2017-09-01T06:54:22.360Z,100.0
2017-09-01T06:55:23.174Z,100.0
2017-09-01T06:56:24.259Z,100.0
2017-09-01T06:57:24.998Z,100.0
2017-09-01T06:58:25.744Z,100.0
2017-09-01T06:59:26.518Z,100.0
2017-09-01T07:00:27.255Z,100.0
2017-09-01T07:01:28.020Z,100.0
2017-09-01T07:02:29.184Z,100.0
2017-09-01T07:03:29.985Z,100.0
2017-09-01T07:04:30.728Z,100.0
2017-09-01T07:05:31.484Z,100.0
2017-09-01T07:06:32.207Z,100.0
2017-09-01T07:07:33.191Z,100.0
2017-09-01T07:08:33.942Z,100.0
2017-09-01T07:09:34.676Z,100.0
2017-09-01T07:10:35.424Z,100.0
2017-09-01T07:11:36.216Z,100.0
2017-09-01T07:12:37.412Z,100.0
2017-09-01T07:13:38.148Z,100.0
2017-09-01T07:14:38.893Z,100.0
2017-09-01T07:15:39.631Z,100.0
2017-09-01T07:16:40.447Z,100.0
2017-09-01T07:17:41.544Z,100.0
2017-09-01T07:18:42.275Z,100.0
2017-09-01T07:19:43.893Z,100.0
2017-09-01T07:20:44.935Z,100.0
2017-09-01T07:21:45.745Z,100.0
2017-09-01T07:22:46.476Z,100.0
2017-09-01T07:23:47.214Z,100.0
2017-09-01T07:24:47.947Z,100.0
2017-09-01T07:25:50.200Z,100.0
2017-09-01T07:26:50.878Z,100.0
2017-09-01T07:27:51.676Z,100.0
2017-09-01T07:28:52.417Z,100.0
2017-09-01T07:29:53.296Z,100.0
2017-09-01T07:30:54.336Z,100.0
2017-09-01T07:31:55.075Z,100.0
2017-09-01T07:32:55.808Z,100.0
2017-09-01T07:33:56.549Z,100.0
2017-09-01T07:34:57.355Z,100.0
2017-09-01T07:35:58.574Z,100.0
2017-09-01T07:36:59.470Z,100.0
2017-09-01T07:38:00.295Z,100.0
2017-09-01T07:39:01.040Z,100.0
2017-09-01T07:40:01.782Z,100.0
2017-09-01T07:41:02.934Z,100.0
2017-09-01T07:42:03.670Z,100.0
2017-09-01T07:43:04.475Z,100.0
2017-09-01T07:44:05.216Z,100.0
2017-09-01T07:45:06.024Z,100.0
2017-09-01T07:46:07.060Z,100.0
2017-09-01T07:47:07.794Z,100.0
2017-09-01T07:48:08.545Z,100.0
2017-09-01T07:49:09.294Z,100.0
2017-09-01T07:50:10.034Z,100.0
2017-09-01T07:51:11.073Z,100.0
2017-09-01T07:52:11.815Z,100.0
2017-09-01T07:53:12.555Z,100.0
2017-09-01T07:54:13.289Z,100.0
2017-09-01T07:55:14.033Z,100.0
2017-09-01T07:56:14.768Z,100.0
2017-09-01T07:57:15.534Z,100.0
2017-09-01T07:58:16.528Z,100.0
2017-09-01T07:59:17.263Z,99.3
2017-09-01T08:00:18.000Z,98.9
2017-09-01T08:01:18.744Z,99.2
2017-09-01T08:02:19.485Z,98.7
2017-09-01T08:03:20.625Z,96.5
2017-09-01T08:04:21.446Z,96.5
2017-09-01T08:05:22.187Z,94.5
2017-09-01T08:06:22.928Z,93.1
2017-09-01T08:07:23.733Z,94.0
2017-09-01T08:08:24.884Z,91.8
2017-09-01T08:09:25.627Z,92.3
2017-09-01T08:10:26.419Z,93.3
2017-09-01T08:11:27.154Z,93.8
2017-09-01T08:12:27.893Z,92.6
2017-09-01T08:13:28.634Z,94.4
2017-09-01T08:14:29.688Z,93.8
2017-09-01T08:15:30.484Z,94.8
2017-09-01T08:16:31.304Z,93.9
2017-09-01T08:17:32.062Z,93.5
2017-09-01T08:18:32.862Z,93.1
2017-09-01T08:19:33.905Z,92.3
2017-09-01T08:20:34.712Z,92.0
2017-09-01T08:21:35.462Z,91.6
2017-09-01T08:22:36.270Z,92.4
2017-09-01T08:23:37.055Z,90.5
2017-09-01T08:24:37.874Z,90.4
2017-09-01T08:25:38.706Z,91.1
2017-09-01T08:26:39.509Z,90.7
2017-09-01T08:27:40.315Z,90.2
2017-09-01T08:28:41.051Z,90.4
2017-09-01T08:29:42.086Z,90.7
2017-09-01T08:30:42.904Z,88.3
2017-09-01T08:31:43.658Z,88.1
2017-09-01T08:32:44.454Z,88.8
2017-09-01T08:33:45.267Z,88.2
2017-09-01T08:34:46.435Z,88.0
2017-09-01T08:35:47.230Z,88.3
2017-09-01T08:36:47.999Z,87.2
2017-09-01T08:37:48.794Z,88.0
2017-09-01T08:38:49.807Z,89.5
2017-09-01T08:39:50.935Z,88.9
2017-09-01T08:40:51.746Z,88.2
2017-09-01T08:41:52.560Z,87.3
2017-09-01T08:42:53.385Z,87.5
2017-09-01T08:43:54.184Z,87.1
2017-09-01T08:44:54.918Z,86.0
2017-09-01T08:45:56.064Z,86.0
2017-09-01T08:46:56.823Z,87.1
2017-09-01T08:47:57.556Z,88.0
2017-09-01T08:48:58.289Z,87.4
2017-09-01T08:49:59.024Z,85.8
2017-09-01T08:51:00.175Z,85.4
2017-09-01T08:52:00.920Z,86.5
2017-09-01T08:53:01.705Z,86.0
2017-09-01T08:54:02.454Z,86.8
2017-09-01T08:55:03.193Z,85.9
2017-09-01T08:56:04.124Z,85.9
2017-09-01T08:57:04.864Z,84.9
2017-09-01T08:58:05.614Z,84.1
2017-09-01T08:59:06.344Z,82.8
2017-09-01T09:00:07.084Z,81.0
2017-09-01T09:01:07.795Z,82.0
2017-09-01T09:02:08.803Z,82.7
2017-09-01T09:03:09.644Z,81.1
2017-09-01T09:04:10.429Z,80.5
2017-09-01T09:05:11.166Z,80.9
2017-09-01T09:06:11.904Z,81.1
2017-09-01T09:07:12.970Z,81.7
2017-09-01T09:08:13.713Z,80.7
2017-09-01T09:09:14.470Z,79.9
2017-09-01T09:10:15.263Z,80.1
2017-09-01T09:11:15.999Z,79.8
2017-09-01T09:12:17.035Z,76.1
2017-09-01T09:13:17.763Z,73.0
2017-09-01T09:14:18.509Z,74.8
2017-09-01T09:15:19.256Z,75.3
2017-09-01T09:16:20.054Z,74.5
2017-09-01T09:17:21.043Z,72.1
2017-09-01T09:18:21.791Z,70.9
2017-09-01T09:19:22.594Z,72.2
2017-09-01T09:20:23.423Z,74.1
2017-09-01T09:21:24.246Z,74.4
2017-09-01T09:22:25.306Z,74.5
2017-09-01T09:23:26.111Z,72.3
2017-09-01T09:24:26.916Z,74.4
2017-09-01T09:25:27.630Z,73.4
2017-09-01T09:26:28.413Z,73.2
2017-09-01T09:27:29.354Z,71.9
2017-09-01T09:28:30.091Z,71.1
2017-09-01T09:29:30.825Z,74.4
2017-09-01T09:30:31.574Z,77.1
2017-09-01T09:31:32.315Z,75.7
2017-09-01T09:32:33.444Z,76.6
2017-09-01T09:33:34.194Z,68.3
2017-09-01T09:34:34.935Z,68.9
2017-09-01T09:35:35.675Z,69.3
2017-09-01T09:36:36.415Z,68.2
2017-09-01T09:37:37.145Z,68.3
2017-09-01T09:38:38.142Z,71.9
2017-09-01T09:39:38.942Z,69.7
2017-09-01T09:40:39.752Z,67.3
2017-09-01T09:41:40.584Z,66.7
2017-09-01T09:42:41.378Z,68.1
2017-09-01T09:43:42.568Z,66.7
2017-09-01T09:44:43.380Z,62.6
2017-09-01T09:45:44.115Z,63.1
2017-09-01T09:46:44.885Z,64.7
2017-09-01T09:47:45.630Z,67.5
2017-09-01T09:48:46.804Z,70.0
2017-09-01T09:49:47.552Z,68.6
2017-09-01T09:50:48.276Z,65.9
2017-09-01T09:51:49.014Z,63.0
2017-09-01T09:52:49.760Z,63.8
2017-09-01T09:53:50.909Z,62.0
2017-09-01T09:54:51.655Z,53.7
2017-09-01T09:55:52.401Z,53.9
2017-09-01T09:56:53.143Z,54.2
2017-09-01T09:57:53.934Z,56.8
2017-09-01T09:58:54.926Z,60.4
2017-09-01T09:59:55.668Z,58.6
2017-09-01T10:00:56.405Z,57.5
2017-09-01T10:01:57.145Z,56.1
2017-09-01T10:02:57.885Z,56.6
2017-09-01T10:03:58.706Z,56.0
2017-09-01T10:04:59.517Z,55.7
2017-09-01T10:06:00.252Z,57.9
2017-09-01T10:07:01.200Z,59.3
2017-09-01T10:08:01.989Z,57.8
2017-09-01T10:09:02.741Z,57.6
2017-09-01T10:10:03.560Z,60.3
2017-09-01T10:11:04.325Z,59.3
2017-09-01T10:12:05.426Z,61.3
2017-09-01T10:13:06.166Z,62.7
2017-09-01T10:14:06.906Z,60.5
2017-09-01T10:15:07.665Z,59.0
2017-09-01T10:16:08.415Z,59.6
2017-09-01T10:17:09.507Z,61.0
2017-09-01T10:18:10.321Z,57.5
2017-09-01T10:19:11.059Z,54.2
2017-09-01T10:20:11.796Z,57.8
2017-09-01T10:21:12.588Z,57.3
2017-09-01T10:22:13.607Z,59.4
2017-09-01T10:23:14.426Z,58.8
2017-09-01T10:24:15.260Z,57.0
2017-09-01T10:25:16.020Z,59.8
2017-09-01T10:26:16.762Z,60.3
2017-09-01T10:27:17.859Z,60.9
2017-09-01T10:28:18.691Z,57.4
2017-09-01T10:29:19.401Z,57.2
2017-09-01T10:30:20.200Z,58.7
2017-09-01T10:31:20.982Z,59.5
2017-09-01T10:32:21.778Z,57.8
2017-09-01T10:33:22.576Z,54.3
2017-09-01T10:34:23.316Z,54.5
2017-09-01T10:35:24.376Z,55.7
2017-09-01T10:36:25.120Z,57.0
2017-09-01T10:37:25.865Z,58.5
2017-09-01T10:38:26.630Z,57.3
2017-09-01T10:39:27.399Z,60.7
2017-09-01T10:40:28.497Z,59.1
2017-09-01T10:41:29.240Z,57.5
2017-09-01T10:42:30.046Z,56.4
2017-09-01T10:43:30.797Z,59.4
2017-09-01T10:44:31.609Z,60.0
2017-09-01T10:45:32.755Z,58.7
2017-09-01T10:46:33.574Z,57.4
2017-09-01T10:47:34.305Z,57.2
2017-09-01T10:48:35.121Z,59.5
2017-09-01T10:49:35.893Z,58.8
2017-09-01T10:50:36.969Z,57.3
2017-09-01T10:51:37.790Z,57.9
2017-09-01T10:52:38.620Z,60.6
2017-09-01T10:53:39.393Z,62.3
2017-09-01T10:54:40.134Z,62.7
2017-09-01T10:55:40.916Z,61.0
2017-09-01T10:56:41.662Z,61.7
2017-09-01T10:57:42.456Z,55.7
2017-09-01T10:58:43.195Z,57.9
2017-09-01T10:59:44.234Z,61.9
2017-09-01T11:00:44.971Z,58.0
2017-09-01T11:01:45.725Z,58.5
2017-09-01T11:02:46.467Z,56.1
2017-09-01T11:03:47.207Z,59.3
2017-09-01T11:04:48.208Z,61.9
2017-09-01T11:05:48.969Z,58.6
2017-09-01T11:06:49.743Z,58.6
2017-09-01T11:07:50.505Z,61.4
2017-09-01T11:08:51.208Z,64.2
2017-09-01T11:09:52.278Z,64.5
2017-09-01T11:10:53.025Z,65.0
2017-09-01T11:11:53.808Z,62.0
2017-09-01T11:12:54.545Z,61.3
2017-09-01T11:13:55.299Z,64.1
2017-09-01T11:14:56.401Z,64.4
2017-09-01T11:15:57.157Z,63.0
2017-09-01T11:16:57.969Z,62.0
2017-09-01T11:17:58.715Z,62.5
2017-09-01T11:18:59.468Z,57.5
2017-09-01T11:20:00.527Z,57.2
2017-09-01T11:21:01.257Z,57.7
2017-09-01T11:22:02.000Z,58.5
2017-09-01T11:23:02.745Z,55.9
2017-09-01T11:24:03.524Z,57.3
2017-09-01T11:25:04.715Z,57.6
2017-09-01T11:26:05.496Z,53.8
2017-09-01T11:27:06.247Z,54.4
2017-09-01T11:28:07.008Z,52.6
2017-09-01T11:29:07.747Z,52.1
2017-09-01T11:30:08.770Z,54.4
2017-09-01T11:31:09.582Z,56.6
2017-09-01T11:32:10.366Z,58.6
2017-09-01T11:33:11.120Z,57.1
2017-09-01T11:34:11.857Z,56.6
2017-09-01T11:35:12.898Z,55.2
2017-09-01T11:36:13.716Z,54.0
2017-09-01T11:37:14.474Z,52.8
2017-09-01T11:38:15.281Z,51.4
2017-09-01T11:39:16.031Z,51.9
2017-09-01T11:40:17.090Z,52.2
2017-09-01T11:41:17.908Z,48.1
2017-09-01T11:42:18.656Z,50.3
2017-09-01T11:43:19.411Z,49.4
2017-09-01T11:44:20.216Z,51.3
2017-09-01T11:45:21.327Z,53.1
2017-09-01T11:46:22.126Z,54.3
2017-09-01T11:47:22.877Z,55.4
2017-09-01T11:48:23.692Z,52.1
2017-09-01T11:49:24.437Z,52.4
2017-09-01T11:50:25.496Z,52.1
2017-09-01T11:51:26.296Z,49.4
2017-09-01T11:52:27.049Z,52.3
2017-09-01T11:53:27.871Z,51.2
2017-09-01T11:54:28.688Z,52.3
2017-09-01T11:55:29.797Z,53.0
2017-09-01T11:56:30.595Z,53.3
2017-09-01T11:57:31.334Z,54.7
2017-09-01T11:58:32.085Z,55.4
2017-09-01T11:59:32.824Z,55.4
2017-09-01T12:00:33.884Z,56.7
2017-09-01T12:01:34.691Z,56.0
2017-09-01T12:02:35.455Z,55.4
2017-09-01T12:03:36.205Z,54.0
2017-09-01T12:04:36.946Z,50.5
2017-09-01T12:05:37.996Z,47.0
2017-09-01T12:06:38.812Z,46.4
2017-09-01T12:07:39.585Z,48.4
2017-09-01T12:08:40.379Z,47.3
2017-09-01T12:09:41.176Z,47.9
2017-09-01T12:10:42.110Z,49.1
2017-09-01T12:11:42.856Z,52.4
2017-09-01T12:12:43.623Z,49.8
2017-09-01T12:13:44.402Z,49.2
2017-09-01T12:14:45.214Z,53.0
2017-09-01T12:15:46.283Z,52.5
2017-09-01T12:16:47.034Z,52.1
2017-09-01T12:17:47.776Z,50.3
2017-09-01T12:18:48.609Z,51.3
2017-09-01T12:19:49.397Z,50.4
2017-09-01T12:20:50.224Z,50.7
2017-09-01T12:21:51.038Z,53.6
2017-09-01T12:22:52.135Z,54.7
2017-09-01T12:23:52.875Z,55.5
2017-09-01T12:24:53.617Z,53.3
2017-09-01T12:25:54.356Z,53.7
2017-09-01T12:26:55.184Z,52.4
2017-09-01T12:27:56.304Z,53.6
2017-09-01T12:28:57.084Z,50.1
2017-09-01T12:29:57.828Z,50.3
2017-09-01T12:30:58.574Z,49.5
2017-09-01T12:31:59.334Z,49.4
2017-09-01T12:33:00.105Z,47.1
2017-09-01T12:34:01.089Z,46.5
2017-09-01T12:35:01.830Z,47.4
2017-09-01T12:36:02.585Z,45.1
2017-09-01T12:37:03.356Z,45.1
2017-09-01T12:38:04.115Z,44.1
2017-09-01T12:39:04.903Z,46.1
2017-09-01T12:40:06.044Z,45.9
2017-09-01T12:41:06.780Z,44.4
2017-09-01T12:42:07.590Z,45.9
2017-09-01T12:43:08.415Z,47.2
2017-09-01T12:44:09.171Z,48.3
2017-09-01T12:45:09.964Z,47.9
2017-09-01T12:46:10.947Z,49.5
2017-09-01T12:47:11.694Z,47.9
2017-09-01T12:48:12.434Z,46.2
2017-09-01T12:49:13.182Z,47.0
2017-09-01T12:50:13.966Z,45.3
2017-09-01T12:51:15.187Z,47.1
2017-09-01T12:52:15.938Z,47.1
2017-09-01T12:53:16.735Z,47.6
2017-09-01T12:54:17.549Z,45.3
2017-09-01T12:55:18.305Z,44.3
2017-09-01T12:56:19.460Z,44.0
2017-09-01T12:57:20.215Z,44.4
2017-09-01T12:58:21.014Z,45.5
2017-09-01T12:59:21.749Z,46.2
2017-09-01T13:00:22.506Z,47.7
2017-09-01T13:01:23.602Z,48.1
2017-09-01T13:02:24.347Z,47.0
2017-09-01T13:03:25.178Z,49.5
2017-09-01T13:04:25.984Z,49.8
2017-09-01T13:05:26.728Z,50.6
2017-09-01T13:06:27.882Z,50.8
2017-09-01T13:07:28.625Z,53.2
2017-09-01T13:08:29.462Z,53.9
2017-09-01T13:09:30.197Z,54.1
2017-09-01T13:10:30.940Z,54.4
2017-09-01T13:11:31.980Z,54.6
2017-09-01T13:12:32.726Z,53.7
2017-09-01T13:13:33.513Z,52.3